Jonesboro Municipal Airport
KJBR : rendu visible

Aérodrome :











RETROUVEZ-NOUS SUR...

 
LOGIN :

S'inscrire | Disclaimer

   EN    FR    IT 

 









Légende :    VFR   VFR Marginal   IFR   IFR Intensif   IFR Très Intensif
Visi : 
Plafond : 
>= 8 km
>= 3000ft
5 à 8 km
1000 à 3000 ft
1500m à 5 km
500 à 1000 ft
800 à 1500m
200 à 500 ft
< 800m
< 200 ft
Symboles :   Orages  Brouillard  Fortes neiges  Fortes précipitations  Vent > 20 kt







- Altitude de l'aérodrome : 262 ft
- Code IATA : JBR


KJBR - Jonesboro Municipal

DERNIER METAR :
  • 250421Z AUTO 05006KT 10SM BKN026 OVC033 23/20 A3002 RMK AO2 T02330200

METARs EXPIRÉS :
  • 250353Z AUTO 05008KT 10SM FEW027 BKN031 OVC075 23/20 A3001 RMK AO2 SLP161 T02330200
  • 250253Z AUTO 05008KT 10SM CLR 23/20 A3001 RMK AO2 SLP159 T02280200 50004
  • 250153Z AUTO 05007KT 10SM FEW050 BKN075 24/21 A3002 RMK AO2 SLP162 T02390211

TAF KJBR
Valide du 25 à 01h jusqu'au 26 à 00h UTC


250121Z 2501/2524 05006KT P6SM BKN025 OVC080
FM250600 06003KT 6SM BR VCSH BKN012
FM251100 09005KT 4SM BR OVC008
FM251600 11008KT P6SM VCTS BKN015 OVC025CB
Pas de NOTAMs connus pour ce terrain.



MET'MAP, la Météo Aéronautique d'un coup d'oeil ! - Copyright ORBIFLY Décembre 2007 - Disclaimer

ORBIFLY MET'MAP TEAM :

Programmation & Développement : Alexandra Zaïnal
Conception & Développement : Baudouin d'Aumeries
Co-Programmation & Développement : Marc-Olivier Méhu
Soutien technique & logistique : Manuel Goepfert

Contact : metmap@orbifly.com




SOURCES & CREDITS :

   NOAA       Earth
Advisory